createdAt,value
2019-02-21T00:00:54.802Z,99116.97
2019-02-21T00:03:29.451Z,99116.65
2019-02-21T00:06:01.293Z,99119.83
2019-02-21T00:08:32.838Z,99124.58
2019-02-21T00:11:06.998Z,99127.26
2019-02-21T00:13:38.849Z,99125.72
2019-02-21T00:16:11.872Z,99122.27
2019-02-21T00:18:43.777Z,99127.89
2019-02-21T00:21:15.334Z,99133.89
2019-02-21T00:23:47.311Z,99138.23
2019-02-21T00:26:19.174Z,99140.81
2019-02-21T00:28:50.727Z,99139.61
2019-02-21T00:31:22.650Z,99140.16
2019-02-21T00:33:54.429Z,99144.36
2019-02-21T00:36:26.005Z,99150.48
2019-02-21T00:38:57.850Z,99142.32
2019-02-21T00:41:29.719Z,99152.28
2019-02-21T00:44:02.540Z,99140.79
2019-02-21T00:46:34.271Z,99146.87
2019-02-21T00:49:06.091Z,99146.83
2019-02-21T00:51:40.693Z,99154.25
2019-02-21T00:54:12.256Z,99157.66
2019-02-21T00:56:43.827Z,99155.12
2019-02-21T00:59:15.671Z,99155.70
2019-02-21T01:01:47.529Z,99159.33
2019-02-21T01:04:19.070Z,99157.75
2019-02-21T01:06:50.637Z,99157.42
2019-02-21T01:09:22.459Z,99154.45
2019-02-21T01:11:54.336Z,99152.58
2019-02-21T01:14:26.180Z,99150.13
2019-02-21T01:16:58.024Z,99147.63
2019-02-21T01:19:30.907Z,99144.55
2019-02-21T01:22:03.232Z,99150.16
2019-02-21T01:24:35.088Z,99150.21
2019-02-21T01:27:08.481Z,99155.41
2019-02-21T01:29:40.331Z,99148.63
2019-02-21T01:32:12.271Z,99146.54
2019-02-21T01:34:44.164Z,99142.22
2019-02-21T01:37:16.044Z,99141.12
2019-02-21T01:39:47.671Z,99143.03
2019-02-21T01:42:19.518Z,99140.61
2019-02-21T01:44:51.341Z,99147.98
2019-02-21T01:47:23.196Z,99155.38
2019-02-21T01:49:55.020Z,99150.79
2019-02-21T01:52:26.869Z,99149.09
2019-02-21T01:54:58.699Z,99152.16
2019-02-21T01:57:30.555Z,99151.33
2019-02-21T02:00:02.378Z,99157.81
2019-02-21T02:02:34.636Z,99161.77
2019-02-21T02:05:10.429Z,99150.19
2019-02-21T02:07:42.301Z,99147.27
2019-02-21T02:10:17.124Z,99148.59
2019-02-21T02:12:49.053Z,99150.27
2019-02-21T02:15:20.915Z,99143.40
2019-02-21T02:17:55.142Z,99140.86
2019-02-21T02:20:27.049Z,99145.98
2019-02-21T02:23:00.154Z,99150.69
2019-02-21T02:25:32.069Z,99143.06
2019-02-21T02:28:03.885Z,99146.06
2019-02-21T02:30:36.942Z,99140.89
2019-02-21T02:33:08.757Z,99139.16
2019-02-21T02:35:40.623Z,99151.94
2019-02-21T02:38:12.469Z,99152.43
2019-02-21T02:40:44.323Z,99148.48
2019-02-21T02:43:18.308Z,99150.61
2019-02-21T02:45:50.157Z,99143.28
2019-02-21T02:48:22.012Z,99142.26
2019-02-21T02:50:53.871Z,99145.30
2019-02-21T02:53:25.735Z,99143.59
2019-02-21T02:56:00.044Z,99141.50
2019-02-21T02:58:31.622Z,99142.80
2019-02-21T03:01:04.758Z,99136.42
2019-02-21T03:03:36.607Z,99142.03
2019-02-21T03:06:08.496Z,99143.36
2019-02-21T03:08:40.539Z,99143.82
2019-02-21T03:11:12.380Z,99142.27
2019-02-21T03:13:43.960Z,99147.50
2019-02-21T03:16:16.601Z,99150.53
2019-02-21T03:18:48.465Z,99162.21
2019-02-21T03:21:20.327Z,99169.08
2019-02-21T03:23:52.176Z,99168.17
2019-02-21T03:26:26.756Z,99172.88
2019-02-21T03:28:58.668Z,99174.58
2019-02-21T03:31:30.518Z,99171.59
2019-02-21T03:34:02.426Z,99174.09
2019-02-21T03:36:34.233Z,99171.09
2019-02-21T03:39:09.297Z,99175.77
2019-02-21T03:41:41.137Z,99170.56
2019-02-21T03:44:13.001Z,99180.13
2019-02-21T03:46:44.929Z,99180.13
2019-02-21T03:49:16.814Z,99185.28
2019-02-21T03:51:48.644Z,99181.76
2019-02-21T03:54:20.523Z,99178.37
2019-02-21T03:56:52.034Z,99175.98
2019-02-21T03:59:23.899Z,99175.49
2019-02-21T04:02:04.793Z,99173.25
2019-02-21T04:04:29.788Z,99175.98
2019-02-21T04:07:01.619Z,99176.81
2019-02-21T04:09:33.461Z,99175.61
2019-02-21T04:12:05.413Z,99178.64
2019-02-21T04:14:37.319Z,99177.34
2019-02-21T04:17:09.293Z,99179.47
2019-02-21T04:19:41.135Z,99178.56
2019-02-21T04:22:13.142Z,99181.22
2019-02-21T04:24:44.978Z,99181.98
2019-02-21T04:27:17.890Z,99181.22
2019-02-21T04:29:49.752Z,99177.34
2019-02-21T04:32:21.629Z,99174.42
2019-02-21T04:34:53.448Z,99180.52
2019-02-21T04:37:25.326Z,99183.17
2019-02-21T04:39:57.172Z,99187.11
2019-02-21T04:42:29.048Z,99186.20
2019-02-21T04:45:00.885Z,99187.57
2019-02-21T04:47:32.766Z,99187.91
2019-02-21T04:50:05.802Z,99192.20
2019-02-21T04:52:38.806Z,99185.72
2019-02-21T04:55:10.654Z,99192.20
2019-02-21T04:57:42.522Z,99187.16
2019-02-21T05:00:15.526Z,99186.17
2019-02-21T05:02:47.366Z,99190.00
2019-02-21T05:05:19.201Z,99190.73
2019-02-21T05:07:51.160Z,99191.56
2019-02-21T05:10:24.200Z,99194.49
2019-02-21T05:12:56.707Z,99199.16
2019-02-21T05:15:28.535Z,99195.18
2019-02-21T05:18:00.388Z,99185.28
2019-02-21T05:20:32.307Z,99185.24
2019-02-21T05:23:04.172Z,99198.34
2019-02-21T05:25:35.990Z,99197.09
2019-02-21T05:28:27.180Z,99196.14
2019-02-21T05:31:26.981Z,99203.34
2019-02-21T05:34:09.475Z,99195.04
2019-02-21T05:37:02.992Z,99193.45
2019-02-21T05:40:08.794Z,99197.39
2019-02-21T05:43:02.241Z,99195.91
2019-02-21T05:45:55.993Z,99189.50
2019-02-21T05:48:45.314Z,99189.84
2019-02-21T05:51:36.029Z,99184.72
2019-02-21T05:54:38.949Z,99182.48
2019-02-21T05:57:24.359Z,99186.84
2019-02-21T06:00:16.348Z,99189.92
2019-02-21T06:03:04.063Z,99182.78
2019-02-21T06:06:09.742Z,99186.27
2019-02-21T06:08:51.271Z,99190.52
2019-02-21T06:11:48.055Z,99190.07
2019-02-21T06:14:35.509Z,99191.81
2019-02-21T06:17:47.621Z,99192.16
2019-02-21T06:20:29.505Z,99195.88
2019-02-21T06:23:29.083Z,99206.54
2019-02-21T06:26:29.054Z,99205.13
2019-02-21T06:29:06.780Z,99211.13
2019-02-21T06:31:38.615Z,99216.63
2019-02-21T06:34:10.178Z,99217.09
2019-02-21T06:36:42.016Z,99214.43
2019-02-21T06:39:13.860Z,99222.13
2019-02-21T06:41:45.852Z,99216.48
2019-02-21T06:44:17.856Z,99227.18
2019-02-21T06:46:49.715Z,99232.27
2019-02-21T06:49:31.822Z,99234.28
2019-02-21T06:51:54.803Z,99233.03
2019-02-21T06:54:26.639Z,99245.36
2019-02-21T06:56:58.660Z,99244.41
2019-02-21T06:59:30.499Z,99243.50
2019-02-21T07:02:02.488Z,99252.38
2019-02-21T07:04:34.324Z,99250.59
2019-02-21T07:07:06.186Z,99250.84
2019-02-21T07:09:38.024Z,99262.31
2019-02-21T07:12:10.676Z,99262.61
2019-02-21T07:14:45.848Z,99261.70
2019-02-21T07:17:17.736Z,99264.20
2019-02-21T07:19:49.563Z,99273.54
2019-02-21T07:22:22.319Z,99277.87
2019-02-21T07:24:58.664Z,99278.25
2019-02-21T07:27:30.503Z,99276.37
2019-02-21T07:30:02.408Z,99282.71
2019-02-21T07:32:44.435Z,99278.26
2019-02-21T07:35:16.266Z,99286.34
2019-02-21T07:37:47.853Z,99279.42
2019-02-21T07:40:20.326Z,99274.67
2019-02-21T07:42:52.407Z,99279.88
2019-02-21T07:45:23.978Z,99273.38
2019-02-21T07:47:55.790Z,99281.42
2019-02-21T07:50:27.675Z,99280.75
2019-02-21T07:53:02.458Z,99284.67
2019-02-21T07:55:32.522Z,99290.58
2019-02-21T07:58:04.314Z,99292.11
2019-02-21T08:00:36.006Z,99286.07
2019-02-21T08:03:09.194Z,99285.92
2019-02-21T08:05:40.947Z,99285.95
2019-02-21T08:08:12.532Z,99289.46
2019-02-21T08:10:44.283Z,99290.88
2019-02-21T08:13:15.833Z,99290.55
2019-02-21T08:15:47.626Z,99294.70
2019-02-21T08:18:19.194Z,99293.98
2019-02-21T08:20:50.824Z,99298.66
2019-02-21T08:23:23.845Z,99296.05
2019-02-21T08:25:55.496Z,99303.27
2019-02-21T08:28:27.060Z,99303.98
2019-02-21T08:30:58.635Z,99305.17
2019-02-21T08:33:33.329Z,99308.79
2019-02-21T08:36:04.943Z,99306.23
2019-02-21T08:38:36.463Z,99304.52
2019-02-21T08:41:08.250Z,99301.51
2019-02-21T08:43:39.807Z,99305.34
2019-02-21T08:46:13.207Z,99300.44
2019-02-21T08:48:47.638Z,99300.33
2019-02-21T08:51:18.484Z,99302.86
2019-02-21T08:53:52.432Z,99293.48
2019-02-21T08:56:23.990Z,99291.83
2019-02-21T08:58:55.572Z,99292.44
2019-02-21T09:01:27.331Z,99291.58
2019-02-21T09:04:10.069Z,99293.09
2019-02-21T09:06:36.966Z,99298.96
2019-02-21T09:09:08.931Z,99308.79
2019-02-21T09:11:42.094Z,99299.66
2019-02-21T09:14:13.666Z,99303.16
2019-02-21T09:16:45.218Z,99303.71
2019-02-21T09:19:16.859Z,99310.23
2019-02-21T09:21:50.188Z,99312.72
2019-02-21T09:24:37.861Z,99305.58
2019-02-21T09:26:57.354Z,99308.45
2019-02-21T09:29:28.344Z,99307.81
2019-02-21T09:31:59.921Z,99307.52
2019-02-21T09:34:31.493Z,99309.76
2019-02-21T09:37:05.394Z,99304.58
2019-02-21T09:39:37.847Z,99309.20
2019-02-21T09:42:11.928Z,99302.84
2019-02-21T09:44:44.594Z,99303.36
2019-02-21T09:47:16.284Z,99304.73
2019-02-21T09:49:49.444Z,99307.61
2019-02-21T09:52:20.927Z,99311.79
2019-02-21T09:54:52.553Z,99313.02
2019-02-21T09:57:26.777Z,99316.61
2019-02-21T09:59:58.378Z,99316.84
2019-02-21T10:02:29.985Z,99320.95
2019-02-21T10:05:04.897Z,99316.59
2019-02-21T10:07:37.068Z,99315.77
2019-02-21T10:10:11.663Z,99314.52
2019-02-21T10:12:43.538Z,99317.55
2019-02-21T10:15:15.536Z,99321.30
2019-02-21T10:17:47.140Z,99321.61
2019-02-21T10:20:20.209Z,99322.66
2019-02-21T10:22:51.781Z,99324.84
2019-02-21T10:25:25.977Z,99320.09
2019-02-21T10:27:59.054Z,99314.69
2019-02-21T10:30:30.937Z,99314.81
2019-02-21T10:33:02.474Z,99311.45
2019-02-21T10:35:35.144Z,99312.59
2019-02-21T10:38:06.697Z,99308.82
2019-02-21T10:40:38.284Z,99310.22
2019-02-21T10:43:09.893Z,99312.00
2019-02-21T10:45:47.703Z,99307.55
2019-02-21T10:48:14.755Z,99308.02
2019-02-21T10:50:46.385Z,99313.39
2019-02-21T10:53:17.990Z,99305.75
2019-02-21T10:55:49.555Z,99311.66
2019-02-21T10:58:21.136Z,99310.80
2019-02-21T11:00:52.697Z,99304.16
2019-02-21T11:03:24.299Z,99299.66
2019-02-21T11:05:55.861Z,99295.81
2019-02-21T11:08:27.436Z,99293.97
2019-02-21T11:10:59.018Z,99287.19
2019-02-21T11:13:30.611Z,99286.72
2019-02-21T11:16:02.171Z,99284.01
2019-02-21T11:18:35.434Z,99293.16
2019-02-21T11:21:08.038Z,99281.89
2019-02-21T11:23:39.607Z,99284.50
2019-02-21T11:26:11.210Z,99276.53
2019-02-21T11:28:42.775Z,99283.05
2019-02-21T11:31:14.367Z,99276.66
2019-02-21T11:33:45.912Z,99271.65
2019-02-21T11:36:17.502Z,99278.83
2019-02-21T11:38:49.129Z,99277.39
2019-02-21T11:41:20.773Z,99277.31
2019-02-21T11:43:52.352Z,99280.62
2019-02-21T11:46:23.961Z,99275.90
2019-02-21T11:48:55.559Z,99276.42
2019-02-21T11:51:27.134Z,99272.81
2019-02-21T11:54:00.121Z,99272.95
2019-02-21T11:56:33.191Z,99270.62
2019-02-21T11:59:04.789Z,99267.02
2019-02-21T12:01:39.982Z,99273.21
2019-02-21T12:04:11.546Z,99274.77
2019-02-21T12:06:43.150Z,99268.43
2019-02-21T12:09:14.817Z,99267.15
2019-02-21T12:11:46.478Z,99263.97
2019-02-21T12:14:18.143Z,99263.77
2019-02-21T12:16:49.745Z,99262.77
2019-02-21T12:19:21.396Z,99258.83
2019-02-21T12:21:59.056Z,99254.16
2019-02-21T12:24:26.292Z,99253.57
2019-02-21T12:26:59.698Z,99252.98
2019-02-21T12:29:31.289Z,99256.92
2019-02-21T12:32:03.852Z,99247.28
2019-02-21T12:34:35.707Z,99247.73
2019-02-21T12:37:07.278Z,99245.76
2019-02-21T12:39:38.901Z,99238.33
2019-02-21T12:42:10.527Z,99233.28
2019-02-21T12:44:42.072Z,99229.98
2019-02-21T12:47:13.659Z,99225.56
2019-02-21T12:49:45.246Z,99222.52
2019-02-21T12:52:16.827Z,99226.67
2019-02-21T12:54:51.829Z,99230.44
2019-02-21T12:57:23.635Z,99223.25
2019-02-21T12:59:55.203Z,99219.75
2019-02-21T13:02:29.746Z,99221.67
2019-02-21T13:05:01.308Z,99224.69
2019-02-21T13:07:33.184Z,99222.64
2019-02-21T13:10:07.446Z,99224.89
2019-02-21T13:12:39.058Z,99223.19
2019-02-21T13:15:12.543Z,99219.16
2019-02-21T13:17:44.162Z,99214.18
2019-02-21T13:20:16.169Z,99218.09
2019-02-21T13:22:47.831Z,99214.56
2019-02-21T13:25:19.564Z,99212.56
2019-02-21T13:27:51.165Z,99209.14
2019-02-21T13:30:22.839Z,99211.56
2019-02-21T13:32:54.405Z,99213.95
2019-02-21T13:35:25.982Z,99213.15
2019-02-21T13:37:57.576Z,99214.56
2019-02-21T13:40:29.176Z,99209.58
2019-02-21T13:43:00.792Z,99207.91
2019-02-21T13:45:32.368Z,99209.33
2019-02-21T13:48:03.994Z,99205.74
2019-02-21T13:50:35.597Z,99201.70
2019-02-21T13:53:07.224Z,99203.23
2019-02-21T13:55:39.160Z,99200.80
2019-02-21T13:58:10.753Z,99200.05
2019-02-21T14:00:42.361Z,99204.09
2019-02-21T14:03:14.017Z,99202.64
2019-02-21T14:05:45.566Z,99201.36
2019-02-21T14:08:17.159Z,99198.22
2019-02-21T14:10:51.918Z,99192.89
2019-02-21T14:13:23.547Z,99195.52
2019-02-21T14:15:56.493Z,99184.31
2019-02-21T14:18:28.170Z,99188.35
2019-02-21T14:20:59.753Z,99186.94
2019-02-21T14:23:31.335Z,99187.39
2019-02-21T14:26:02.927Z,99196.17
2019-02-21T14:28:37.305Z,99194.11
2019-02-21T14:31:08.144Z,99198.84
2019-02-21T14:33:39.815Z,99183.77
2019-02-21T14:36:16.012Z,99189.60
2019-02-21T14:38:44.698Z,99189.29
2019-02-21T14:41:16.394Z,99187.58
2019-02-21T14:43:47.995Z,99190.70
2019-02-21T14:46:19.582Z,99202.80
2019-02-21T14:48:51.294Z,99211.52
2019-02-21T14:51:22.862Z,99206.38
2019-02-21T14:53:54.447Z,99205.85
2019-02-21T14:56:26.069Z,99198.18
2019-02-21T14:59:04.661Z,99200.32
2019-02-21T15:01:36.221Z,99208.90
2019-02-21T15:04:07.821Z,99210.80
2019-02-21T15:06:44.770Z,99207.59
2019-02-21T15:09:16.362Z,99203.44
2019-02-21T15:11:47.945Z,99207.62
2019-02-21T15:14:19.562Z,99210.20
2019-02-21T15:16:54.310Z,99213.48
2019-02-21T15:19:26.951Z,99209.11
2019-02-21T15:22:17.595Z,99219.92
2019-02-21T15:24:51.005Z,99218.02
2019-02-21T15:27:23.549Z,99228.75
2019-02-21T15:29:57.382Z,99219.94
2019-02-21T15:32:28.490Z,99221.78
2019-02-21T15:35:00.314Z,99216.91
2019-02-21T15:37:33.598Z,99218.52
2019-02-21T15:40:05.691Z,99216.51
2019-02-21T15:42:39.308Z,99214.67
2019-02-21T15:45:22.384Z,99208.95
2019-02-21T15:47:47.545Z,99207.50
2019-02-21T15:50:20.150Z,99215.47
2019-02-21T15:52:52.073Z,99205.38
2019-02-21T15:55:23.626Z,99209.31
2019-02-21T15:58:03.845Z,99208.93
2019-02-21T16:00:31.311Z,99210.63
2019-02-21T16:03:05.733Z,99211.75
2019-02-21T16:05:37.307Z,99208.88
2019-02-21T16:08:08.911Z,99211.70
2019-02-21T16:10:40.502Z,99207.58
2019-02-21T16:13:12.258Z,99214.72
2019-02-21T16:15:43.892Z,99208.46
2019-02-21T16:18:15.505Z,99210.52
2019-02-21T16:20:47.120Z,99209.98
2019-02-21T16:23:22.104Z,99211.45
2019-02-21T16:25:53.730Z,99209.98
2019-02-21T16:28:25.343Z,99207.38
2019-02-21T16:30:56.949Z,99203.09
2019-02-21T16:33:28.603Z,99212.08
2019-02-21T16:36:01.432Z,99217.72
2019-02-21T16:38:35.961Z,99220.23
2019-02-21T16:41:07.548Z,99222.31
2019-02-21T16:43:39.180Z,99226.09
2019-02-21T16:46:10.747Z,99235.90
2019-02-21T16:48:42.361Z,99233.94
2019-02-21T16:51:13.954Z,99238.16
2019-02-21T16:53:45.597Z,99236.30
2019-02-21T16:56:17.180Z,99235.81
2019-02-21T16:58:48.813Z,99237.48
2019-02-21T17:01:20.399Z,99239.56
2019-02-21T17:03:52.011Z,99239.58
2019-02-21T17:06:23.632Z,99229.46
2019-02-21T17:08:55.240Z,99236.08
2019-02-21T17:11:26.826Z,99235.32
2019-02-21T17:13:59.522Z,99237.27
2019-02-21T17:16:31.102Z,99242.91
2019-02-21T17:19:02.708Z,99248.42
2019-02-21T17:21:34.291Z,99247.37
2019-02-21T17:24:07.237Z,99255.31
2019-02-21T17:26:39.120Z,99253.50
2019-02-21T17:29:13.532Z,99260.20
2019-02-21T17:31:46.287Z,99270.05
2019-02-21T17:34:17.901Z,99274.88
2019-02-21T17:36:49.493Z,99272.25
2019-02-21T17:39:21.119Z,99269.87
2019-02-21T17:41:52.707Z,99273.65
2019-02-21T17:44:24.379Z,99268.59
2019-02-21T17:46:56.195Z,99280.60
2019-02-21T17:49:27.779Z,99290.14
2019-02-21T17:51:59.418Z,99286.70
2019-02-21T17:54:31.005Z,99285.66
2019-02-21T17:57:02.596Z,99289.16
2019-02-21T17:59:34.851Z,99288.19
2019-02-21T18:02:06.438Z,99298.53
2019-02-21T18:04:38.025Z,99295.53
2019-02-21T18:07:09.593Z,99297.95
2019-02-21T18:09:42.938Z,99299.78
2019-02-21T18:12:14.639Z,99305.00
2019-02-21T18:14:46.279Z,99313.63
2019-02-21T18:17:20.016Z,99312.56
2019-02-21T18:19:51.646Z,99314.93
2019-02-21T18:22:23.260Z,99312.23
2019-02-21T18:24:54.918Z,99310.14
2019-02-21T18:27:26.524Z,99312.84
2019-02-21T18:29:58.125Z,99315.17
2019-02-21T18:32:30.019Z,99314.78
2019-02-21T18:35:01.612Z,99315.33
2019-02-21T18:37:33.395Z,99321.05
2019-02-21T18:40:16.917Z,99329.91
2019-02-21T18:42:40.553Z,99328.13
2019-02-21T18:45:12.161Z,99332.13
2019-02-21T18:47:50.672Z,99327.06
2019-02-21T18:50:23.632Z,99328.91
2019-02-21T18:52:55.234Z,99326.30
2019-02-21T18:55:26.867Z,99325.67
2019-02-21T18:57:58.547Z,99323.61
2019-02-21T19:00:41.985Z,99323.14
2019-02-21T19:03:16.586Z,99322.30
2019-02-21T19:05:48.193Z,99324.92
2019-02-21T19:08:19.804Z,99329.55
2019-02-21T19:10:51.437Z,99331.55
2019-02-21T19:13:24.098Z,99327.40
2019-02-21T19:15:55.704Z,99329.17
2019-02-21T19:18:27.430Z,99329.02
2019-02-21T19:20:59.109Z,99327.70
2019-02-21T19:23:30.708Z,99326.01
2019-02-21T19:26:02.347Z,99327.70
2019-02-21T19:28:34.025Z,99325.72
2019-02-21T19:31:14.990Z,99326.71
2019-02-21T19:33:46.602Z,99316.89
2019-02-21T19:36:18.259Z,99317.64
2019-02-21T19:38:49.879Z,99322.11
2019-02-21T19:41:21.512Z,99325.81
2019-02-21T19:43:53.115Z,99330.16
2019-02-21T19:46:27.814Z,99333.79
2019-02-21T19:48:59.416Z,99330.17
2019-02-21T19:51:31.175Z,99338.37
2019-02-21T19:54:05.073Z,99339.59
2019-02-21T19:56:36.677Z,99330.17
2019-02-21T19:59:08.295Z,99336.85
2019-02-21T20:01:40.305Z,99342.14
2019-02-21T20:04:14.305Z,99344.51
2019-02-21T20:06:45.939Z,99342.05
2019-02-21T20:09:18.181Z,99346.87
2019-02-21T20:11:49.834Z,99342.81
2019-02-21T20:14:21.584Z,99345.86
2019-02-21T20:16:53.199Z,99337.42
2019-02-21T20:19:26.010Z,99336.19
2019-02-21T20:21:57.749Z,99338.58
2019-02-21T20:24:29.366Z,99340.39
2019-02-21T20:27:00.995Z,99343.41
2019-02-21T20:29:32.683Z,99347.93
2019-02-21T20:32:04.356Z,99347.53
2019-02-21T20:34:37.104Z,99352.06
2019-02-21T20:37:08.786Z,99350.76
2019-02-21T20:39:40.376Z,99350.50
2019-02-21T20:42:16.752Z,99351.12
2019-02-21T20:44:48.441Z,99356.08
2019-02-21T20:47:21.349Z,99357.81
2019-02-21T20:49:52.963Z,99356.58
2019-02-21T20:52:24.560Z,99357.12
2019-02-21T20:54:56.585Z,99352.05
2019-02-21T20:57:28.265Z,99359.87
2019-02-21T20:59:59.888Z,99360.70
2019-02-21T21:02:31.596Z,99368.05
2019-02-21T21:05:03.293Z,99367.83
2019-02-21T21:07:35.186Z,99376.55
2019-02-21T21:10:09.278Z,99379.62
2019-02-21T21:12:40.894Z,99380.32
2019-02-21T21:15:15.220Z,99378.39
2019-02-21T21:17:48.161Z,99374.22
2019-02-21T21:20:19.813Z,99374.30
2019-02-21T21:22:51.417Z,99377.70
2019-02-21T21:25:22.996Z,99375.53
2019-02-21T21:27:54.703Z,99385.05
2019-02-21T21:30:26.312Z,99383.88
2019-02-21T21:32:57.978Z,99385.33
2019-02-21T21:35:29.607Z,99387.67
2019-02-21T21:38:01.203Z,99385.93
2019-02-21T21:40:32.854Z,99393.45
2019-02-21T21:43:06.129Z,99393.89
2019-02-21T21:45:37.742Z,99398.16
2019-02-21T21:48:09.363Z,99400.27
2019-02-21T21:50:40.942Z,99399.86
2019-02-21T21:53:15.802Z,99415.03
2019-02-21T21:55:45.904Z,99422.48
2019-02-21T21:58:17.508Z,99425.16
2019-02-21T22:00:49.103Z,99420.81
2019-02-21T22:03:20.713Z,99419.41
2019-02-21T22:05:52.356Z,99420.38
2019-02-21T22:08:23.963Z,99429.06
2019-02-21T22:10:55.584Z,99427.00
2019-02-21T22:13:27.288Z,99420.88
2019-02-21T22:15:58.870Z,99427.80
2019-02-21T22:18:30.488Z,99428.30
2019-02-21T22:21:02.099Z,99419.98
2019-02-21T22:23:33.697Z,99423.02
2019-02-21T22:26:07.172Z,99423.16
2019-02-21T22:28:38.790Z,99428.84
2019-02-21T22:31:11.880Z,99425.33
2019-02-21T22:33:43.462Z,99423.22
2019-02-21T22:36:15.300Z,99423.16
2019-02-21T22:38:46.883Z,99428.44
2019-02-21T22:41:18.532Z,99425.70
2019-02-21T22:43:50.136Z,99430.07
2019-02-21T22:46:21.760Z,99434.58
2019-02-21T22:48:53.422Z,99439.05
2019-02-21T22:51:27.885Z,99441.66
2019-02-21T22:53:59.556Z,99443.44
2019-02-21T22:56:31.166Z,99440.12
2019-02-21T22:59:04.145Z,99446.94
2019-02-21T23:01:47.548Z,99447.54
2019-02-21T23:04:41.004Z,99447.61
2019-02-21T23:08:14.499Z,99440.56
2019-02-21T23:10:46.293Z,99441.09
2019-02-21T23:13:18.033Z,99446.77
2019-02-21T23:15:50.094Z,99440.33
2019-02-21T23:18:21.691Z,99441.23
2019-02-21T23:20:53.255Z,99443.40
2019-02-21T23:23:24.807Z,99447.37
2019-02-21T23:25:56.451Z,99448.34
2019-02-21T23:28:28.025Z,99439.81
2019-02-21T23:31:00.978Z,99440.45
2019-02-21T23:33:34.478Z,99440.21
2019-02-21T23:36:06.051Z,99437.61
2019-02-21T23:38:37.617Z,99440.78
2019-02-21T23:41:11.934Z,99441.10
2019-02-21T23:43:43.516Z,99445.07
2019-02-21T23:46:17.818Z,99434.84
2019-02-21T23:48:52.005Z,99441.36
2019-02-21T23:51:23.555Z,99429.27
2019-02-21T23:54:02.786Z,99434.48
2019-02-21T23:56:28.388Z,99435.31
2019-02-21T23:58:59.962Z,99437.02
